createdAt,value
2023-02-05T00:00:21.625Z,-4.75
2023-02-05T00:01:25.258Z,-4.85
2023-02-05T00:02:27.979Z,-4.85
2023-02-05T00:03:30.497Z,-4.84
2023-02-05T00:04:36.338Z,-4.89
2023-02-05T00:05:38.972Z,-4.96
2023-02-05T00:06:41.340Z,-4.86
2023-02-05T00:07:43.278Z,-4.75
2023-02-05T00:08:45.727Z,-4.73
2023-02-05T00:09:48.884Z,-4.75
2023-02-05T00:10:52.737Z,-4.76
2023-02-05T00:11:55.804Z,-4.84
2023-02-05T00:12:58.054Z,-4.95
2023-02-05T00:14:00.287Z,-4.88
2023-02-05T00:15:02.380Z,-4.88
2023-02-05T00:16:14.340Z,-4.74
2023-02-05T00:17:16.555Z,-4.75
2023-02-05T00:18:19.625Z,-4.71
2023-02-05T00:19:21.700Z,-4.80
2023-02-05T00:20:23.959Z,-4.81
2023-02-05T00:21:26.674Z,-4.79
2023-02-05T00:22:29.176Z,-4.78
2023-02-05T00:23:32.577Z,-4.77
2023-02-05T00:24:34.787Z,-4.78
2023-02-05T00:25:37.049Z,-4.69
2023-02-05T00:26:40.823Z,-4.73
2023-02-05T00:27:42.908Z,-4.69
2023-02-05T00:28:45.340Z,-4.62
2023-02-05T00:29:47.358Z,-4.59
2023-02-05T00:30:50.191Z,-4.77
2023-02-05T00:31:52.454Z,-4.74
2023-02-05T00:32:54.968Z,-4.77
2023-02-05T00:33:59.546Z,-4.76
2023-02-05T00:35:01.669Z,-4.83
2023-02-05T00:36:05.257Z,-4.76
2023-02-05T00:37:07.521Z,-4.84
2023-02-05T00:38:09.521Z,-4.81
2023-02-05T00:39:13.451Z,-4.76
2023-02-05T00:40:16.224Z,-4.81
2023-02-05T00:41:18.742Z,-4.75
2023-02-05T00:42:20.961Z,-4.77
2023-02-05T00:43:23.308Z,-4.78
2023-02-05T00:44:26.283Z,-4.83
2023-02-05T00:45:30.368Z,-4.83
2023-02-05T00:46:32.962Z,-4.92
2023-02-05T00:47:35.687Z,-4.90
2023-02-05T00:48:38.353Z,-4.82
2023-02-05T00:49:40.596Z,-4.79
2023-02-05T00:50:42.924Z,-4.79
2023-02-05T00:51:44.904Z,-4.81
2023-02-05T00:52:47.119Z,-4.67
2023-02-05T00:53:50.065Z,-4.60
2023-02-05T00:54:53.022Z,-4.54
2023-02-05T00:55:55.717Z,-4.54
2023-02-05T00:56:58.575Z,-4.52
2023-02-05T00:58:01.355Z,-4.58
2023-02-05T00:59:03.930Z,-4.68
2023-02-05T01:00:08.824Z,-4.74
2023-02-05T01:01:12.970Z,-4.63
2023-02-05T01:02:15.579Z,-4.68
2023-02-05T01:03:19.634Z,-4.61
2023-02-05T01:04:22.834Z,-4.65
2023-02-05T01:05:25.271Z,-4.57
2023-02-05T01:06:27.442Z,-4.66
2023-02-05T01:07:29.916Z,-4.70
2023-02-05T01:08:32.993Z,-4.69
2023-02-05T01:09:35.713Z,-4.58
2023-02-05T01:10:40.526Z,-4.61
2023-02-05T01:11:43.242Z,-4.79
2023-02-05T01:12:45.357Z,-4.70
2023-02-05T01:13:47.551Z,-4.73
2023-02-05T01:14:49.835Z,-4.60
2023-02-05T01:15:52.884Z,-4.60
2023-02-05T01:16:55.365Z,-4.71
2023-02-05T01:17:59.141Z,-4.60
2023-02-05T01:19:01.154Z,-4.61
2023-02-05T01:20:05.892Z,-4.75
2023-02-05T01:21:08.128Z,-4.71
2023-02-05T01:22:10.980Z,-4.57
2023-02-05T01:23:13.457Z,-4.43
2023-02-05T01:24:16.405Z,-4.36
2023-02-05T01:25:18.634Z,-4.30
2023-02-05T01:26:21.805Z,-4.42
2023-02-05T01:27:24.486Z,-4.54
2023-02-05T01:28:27.913Z,-4.54
2023-02-05T01:29:30.437Z,-4.30
2023-02-05T01:30:33.114Z,-4.55
2023-02-05T01:31:35.235Z,-4.55
2023-02-05T01:32:38.137Z,-4.49
2023-02-05T01:33:40.081Z,-4.50
2023-02-05T01:34:42.139Z,-4.45
2023-02-05T01:35:45.159Z,-4.57
2023-02-05T01:36:49.662Z,-4.59
2023-02-05T01:37:52.192Z,-4.72
2023-02-05T01:38:54.313Z,-4.65
2023-02-05T01:39:57.930Z,-4.47
2023-02-05T01:41:00.271Z,-4.51
2023-02-05T01:42:03.558Z,-4.42
2023-02-05T01:43:14.283Z,-4.39
2023-02-05T01:44:21.497Z,-4.37
2023-02-05T01:45:32.043Z,-4.54
2023-02-05T01:46:38.725Z,-4.55
2023-02-05T01:47:41.124Z,-4.54
2023-02-05T01:48:47.599Z,-4.59
2023-02-05T01:49:50.212Z,-4.60
2023-02-05T01:51:00.140Z,-4.59
2023-02-05T01:52:06.772Z,-4.78
2023-02-05T01:53:12.590Z,-4.69
2023-02-05T01:54:18.218Z,-4.62
2023-02-05T01:55:21.105Z,-4.53
2023-02-05T01:56:30.216Z,-4.44
2023-02-05T01:57:32.717Z,-4.37
2023-02-05T01:59:51.690Z,-4.30
2023-02-05T02:00:54.315Z,-4.43
2023-02-05T02:02:00.188Z,-4.36
2023-02-05T02:03:05.170Z,-4.44
2023-02-05T02:04:10.565Z,-4.44
2023-02-05T02:05:16.510Z,-4.56
2023-02-05T02:06:18.903Z,-4.52
2023-02-05T02:07:23.359Z,-4.49
2023-02-05T02:08:26.277Z,-4.56
2023-02-05T02:09:28.737Z,-4.46
2023-02-05T02:10:33.357Z,-4.47
2023-02-05T02:11:39.085Z,-4.47
2023-02-05T02:12:44.525Z,-4.46
2023-02-05T02:13:50.028Z,-4.46
2023-02-05T02:14:56.183Z,-4.36
2023-02-05T02:15:59.424Z,-4.47
2023-02-05T02:17:03.775Z,-4.43
2023-02-05T02:18:26.563Z,-4.42
2023-02-05T02:19:38.233Z,-4.39
2023-02-05T02:20:41.794Z,-4.45
2023-02-05T02:21:53.397Z,-4.32
2023-02-05T02:22:59.907Z,-4.39
2023-02-05T02:24:20.716Z,-4.43
2023-02-05T02:25:38.628Z,-4.41
2023-02-05T02:27:16.679Z,-4.35
2023-02-05T02:28:28.907Z,-4.48
2023-02-05T02:29:38.530Z,-4.38
2023-02-05T02:30:57.312Z,-4.26
2023-02-05T02:32:03.369Z,-4.45
2023-02-05T02:33:26.817Z,-4.29
2023-02-05T02:34:32.637Z,-4.34
2023-02-05T02:35:53.452Z,-4.36
2023-02-05T02:37:02.430Z,-4.50
2023-02-05T02:38:20.398Z,-4.57
2023-02-05T02:39:39.680Z,-4.38
2023-02-05T02:40:46.084Z,-4.35
2023-02-05T02:41:53.395Z,-4.30
2023-02-05T02:43:25.907Z,-4.28
2023-02-05T02:44:44.273Z,-4.24
2023-02-05T02:45:50.071Z,-4.09
2023-02-05T02:46:55.100Z,-4.08
2023-02-05T02:48:01.599Z,-4.07
2023-02-05T02:49:06.855Z,-4.09
2023-02-05T02:50:16.395Z,-4.05
2023-02-05T02:51:20.884Z,-4.09
2023-02-05T02:52:25.606Z,-4.05
2023-02-05T02:53:31.740Z,-4.03
2023-02-05T02:54:36.698Z,-3.94
2023-02-05T02:55:43.821Z,-4.07
2023-02-05T02:56:50.281Z,-4.01
2023-02-05T02:57:56.267Z,-4.01
2023-02-05T02:59:06.970Z,-4.02
2023-02-05T03:00:13.858Z,-3.93
2023-02-05T03:01:19.322Z,-3.91
2023-02-05T03:02:22.485Z,-3.96
2023-02-05T03:03:28.245Z,-3.99
2023-02-05T03:04:37.213Z,-4.01
2023-02-05T03:05:42.143Z,-4.06
2023-02-05T03:06:47.658Z,-4.16
2023-02-05T03:07:56.259Z,-4.32
2023-02-05T03:09:08.158Z,-4.35
2023-02-05T03:10:14.577Z,-4.42
2023-02-05T03:11:17.428Z,-4.27
2023-02-05T03:12:20.401Z,-4.22
2023-02-05T03:13:22.631Z,-4.19
2023-02-05T03:14:27.202Z,-4.14
2023-02-05T03:15:32.079Z,-4.13
2023-02-05T03:16:35.119Z,-4.09
2023-02-05T03:17:39.798Z,-4.07
2023-02-05T03:18:43.066Z,-4.10
2023-02-05T03:19:52.408Z,-4.04
2023-02-05T03:20:58.834Z,-3.99
2023-02-05T03:22:03.952Z,-3.96
2023-02-05T03:23:06.312Z,-3.95
2023-02-05T03:24:10.084Z,-3.99
2023-02-05T03:25:12.875Z,-4.01
2023-02-05T03:26:27.717Z,-4.16
2023-02-05T03:27:32.977Z,-4.18
2023-02-05T03:28:35.600Z,-4.13
2023-02-05T03:29:42.399Z,-4.06
2023-02-05T03:32:32.910Z,-3.90
2023-02-05T03:33:47.710Z,-4.01
2023-02-05T03:35:10.525Z,-4.10
2023-02-05T03:36:39.981Z,-4.12
2023-02-05T03:38:08.306Z,-4.24
2023-02-05T03:39:41.838Z,-4.19
2023-02-05T03:41:07.919Z,-4.09
2023-02-05T03:42:38.040Z,-4.09
2023-02-05T03:43:49.804Z,-4.04
2023-02-05T03:44:56.395Z,-4.06
2023-02-05T03:46:19.574Z,-4.01
2023-02-05T03:47:46.458Z,-4.10
2023-02-05T03:48:55.040Z,-4.09
2023-02-05T03:50:03.310Z,-4.01
2023-02-05T03:51:32.037Z,-3.92
2023-02-05T03:52:38.272Z,-3.89
2023-02-05T03:54:01.918Z,-3.94
2023-02-05T03:55:14.241Z,-4.06
2023-02-05T03:56:24.264Z,-4.08
2023-02-05T03:57:31.651Z,-4.19
2023-02-05T03:59:49.642Z,-4.12
2023-02-05T04:00:52.127Z,-4.09
2023-02-05T04:01:55.660Z,-4.08
2023-02-05T04:02:58.140Z,-4.04
2023-02-05T04:04:02.505Z,-3.96
2023-02-05T04:05:05.756Z,-3.89
2023-02-05T04:06:08.941Z,-3.91
2023-02-05T04:07:12.831Z,-3.95
2023-02-05T04:08:15.757Z,-3.90
2023-02-05T04:09:20.035Z,-3.94
2023-02-05T04:10:22.462Z,-3.94
2023-02-05T04:11:25.424Z,-3.98
2023-02-05T04:12:28.376Z,-3.89
2023-02-05T04:13:31.134Z,-3.88
2023-02-05T04:14:34.767Z,-3.89
2023-02-05T04:15:36.910Z,-3.87
2023-02-05T04:16:43.413Z,-3.81
2023-02-05T04:17:46.397Z,-3.82
2023-02-05T04:18:49.082Z,-3.94
2023-02-05T04:19:51.817Z,-4.07
2023-02-05T04:20:54.720Z,-3.99
2023-02-05T04:21:58.722Z,-4.04
2023-02-05T04:23:01.146Z,-4.16
2023-02-05T04:24:05.167Z,-4.29
2023-02-05T04:25:08.503Z,-4.20
2023-02-05T04:26:12.135Z,-4.20
2023-02-05T04:27:16.076Z,-4.30
2023-02-05T04:28:18.582Z,-4.23
2023-02-05T04:29:21.398Z,-4.30
2023-02-05T04:30:25.426Z,-4.45
2023-02-05T04:31:28.241Z,-4.46
2023-02-05T04:32:30.860Z,-4.34
2023-02-05T04:33:34.067Z,-4.23
2023-02-05T04:34:36.604Z,-4.22
2023-02-05T04:35:40.600Z,-4.22
2023-02-05T04:36:43.310Z,-4.19
2023-02-05T04:37:45.399Z,-4.23
2023-02-05T04:38:47.534Z,-4.13
2023-02-05T04:39:50.636Z,-4.14
2023-02-05T04:40:52.939Z,-4.11
2023-02-05T04:41:55.259Z,-4.29
2023-02-05T04:42:58.283Z,-4.21
2023-02-05T04:44:00.973Z,-4.08
2023-02-05T04:45:05.275Z,-4.13
2023-02-05T04:46:09.579Z,-4.14
2023-02-05T04:47:12.930Z,-4.10
2023-02-05T04:48:15.016Z,-4.11
2023-02-05T04:49:17.128Z,-4.20
2023-02-05T04:50:19.350Z,-4.15
2023-02-05T04:51:21.688Z,-4.07
2023-02-05T04:52:23.896Z,-4.22
2023-02-05T04:53:26.129Z,-4.14
2023-02-05T04:54:28.277Z,-4.13
2023-02-05T04:55:31.728Z,-4.23
2023-02-05T04:56:34.228Z,-4.25
2023-02-05T04:57:36.606Z,-4.17
2023-02-05T04:58:39.351Z,-4.22
2023-02-05T04:59:41.578Z,-4.21
2023-02-05T05:00:43.801Z,-4.22
2023-02-05T05:01:46.022Z,-4.14
2023-02-05T05:02:48.419Z,-4.10
2023-02-05T05:03:50.910Z,-4.14
2023-02-05T05:04:53.039Z,-4.29
2023-02-05T05:05:56.016Z,-4.30
2023-02-05T05:06:58.787Z,-4.14
2023-02-05T05:08:01.094Z,-4.06
2023-02-05T05:09:03.523Z,-3.99
2023-02-05T05:10:07.543Z,-4.06
2023-02-05T05:11:12.857Z,-3.94
2023-02-05T05:12:14.929Z,-3.94
2023-02-05T05:13:17.070Z,-3.90
2023-02-05T05:14:19.368Z,-3.89
2023-02-05T05:15:21.829Z,-3.84
2023-02-05T05:16:24.316Z,-3.84
2023-02-05T05:17:26.578Z,-3.83
2023-02-05T05:18:29.119Z,-3.81
2023-02-05T05:19:31.355Z,-3.85
2023-02-05T05:20:33.769Z,-3.79
2023-02-05T05:21:36.205Z,-3.78
2023-02-05T05:22:38.879Z,-3.82
2023-02-05T05:23:41.128Z,-3.81
2023-02-05T05:24:43.244Z,-3.89
2023-02-05T05:25:47.684Z,-3.81
2023-02-05T05:26:50.266Z,-3.78
2023-02-05T05:27:52.442Z,-3.77
2023-02-05T05:28:55.940Z,-3.74
2023-02-05T05:29:58.275Z,-3.70
2023-02-05T05:31:07.944Z,-3.71
2023-02-05T05:32:10.038Z,-3.66
2023-02-05T05:33:13.779Z,-3.65
2023-02-05T05:34:15.919Z,-3.71
2023-02-05T05:35:18.014Z,-3.63
2023-02-05T05:36:20.209Z,-3.63
2023-02-05T05:37:22.661Z,-3.64
2023-02-05T05:38:24.699Z,-3.60
2023-02-05T05:39:45.505Z,-3.62
2023-02-05T05:41:06.150Z,-3.67
2023-02-05T05:42:29.249Z,-3.76
2023-02-05T05:44:53.479Z,-3.46
2023-02-05T05:45:55.446Z,-3.58
2023-02-05T05:46:57.915Z,-3.72
2023-02-05T05:48:00.745Z,-3.72
2023-02-05T05:49:03.551Z,-3.71
2023-02-05T05:50:07.286Z,-3.62
2023-02-05T05:51:10.443Z,-3.79
2023-02-05T05:52:15.105Z,-3.79
2023-02-05T05:53:17.716Z,-3.76
2023-02-05T05:54:19.904Z,-3.72
2023-02-05T05:55:22.038Z,-3.70
2023-02-05T05:56:25.373Z,-3.68
2023-02-05T05:57:28.548Z,-3.61
2023-02-05T05:58:31.778Z,-3.58
2023-02-05T05:59:34.192Z,-3.50
2023-02-05T06:00:38.913Z,-3.53
2023-02-05T06:01:41.309Z,-3.52
2023-02-05T06:02:44.149Z,-3.56
2023-02-05T06:03:46.549Z,-3.53
2023-02-05T06:04:48.761Z,-3.48
2023-02-05T06:05:50.827Z,-3.56
2023-02-05T06:06:53.764Z,-3.57
2023-02-05T06:07:58.833Z,-3.56
2023-02-05T06:09:00.966Z,-3.59
2023-02-05T06:10:03.701Z,-3.53
2023-02-05T06:11:06.176Z,-3.51
2023-02-05T06:12:10.027Z,-3.70
2023-02-05T06:13:13.636Z,-3.67
2023-02-05T06:14:16.178Z,-3.58
2023-02-05T06:15:20.217Z,-3.46
2023-02-05T06:16:22.443Z,-3.64
2023-02-05T06:17:25.334Z,-3.63
2023-02-05T06:18:27.514Z,-3.59
2023-02-05T06:19:30.885Z,-3.61
2023-02-05T06:20:33.152Z,-3.62
2023-02-05T06:21:35.446Z,-3.56
2023-02-05T06:22:38.075Z,-3.48
2023-02-05T06:23:40.206Z,-3.45
2023-02-05T06:24:42.755Z,-3.45
2023-02-05T06:25:45.340Z,-3.55
2023-02-05T06:26:48.971Z,-3.54
2023-02-05T06:27:51.325Z,-3.64
2023-02-05T06:28:55.257Z,-3.82
2023-02-05T06:29:57.946Z,-3.65
2023-02-05T06:31:00.423Z,-3.65
2023-02-05T06:32:02.736Z,-3.57
2023-02-05T06:33:05.382Z,-3.48
2023-02-05T06:34:07.641Z,-3.60
2023-02-05T06:35:09.933Z,-3.63
2023-02-05T06:36:13.136Z,-3.63
2023-02-05T06:37:15.446Z,-3.69
2023-02-05T06:38:19.150Z,-3.59
2023-02-05T06:39:24.853Z,-3.37
2023-02-05T06:40:27.575Z,-3.24
2023-02-05T06:41:29.924Z,-3.40
2023-02-05T06:42:32.140Z,-3.43
2023-02-05T06:43:34.409Z,-3.31
2023-02-05T06:44:36.521Z,-3.17
2023-02-05T06:45:38.651Z,-3.10
2023-02-05T06:46:41.049Z,-3.25
2023-02-05T06:47:44.874Z,-3.21
2023-02-05T06:48:47.340Z,-3.23
2023-02-05T06:49:50.719Z,-3.27
2023-02-05T06:50:53.476Z,-3.32
2023-02-05T06:51:56.516Z,-3.36
2023-02-05T06:52:58.683Z,-3.30
2023-02-05T06:54:01.023Z,-3.21
2023-02-05T06:55:04.186Z,-3.12
2023-02-05T06:56:06.879Z,-3.15
2023-02-05T06:57:09.407Z,-3.31
2023-02-05T06:58:12.640Z,-3.41
2023-02-05T06:59:15.385Z,-3.37
2023-02-05T07:00:19.723Z,-3.23
2023-02-05T07:01:21.986Z,-3.17
2023-02-05T07:02:25.096Z,-3.13
2023-02-05T07:03:28.461Z,-3.09
2023-02-05T07:04:31.932Z,-3.01
2023-02-05T07:05:34.502Z,-3.13
2023-02-05T07:06:37.885Z,-3.22
2023-02-05T07:07:40.105Z,-3.33
2023-02-05T07:08:42.430Z,-3.35
2023-02-05T07:09:45.169Z,-3.23
2023-02-05T07:10:47.559Z,-3.24
2023-02-05T07:11:50.605Z,-3.18
2023-02-05T07:12:52.797Z,-3.24
2023-02-05T07:13:56.152Z,-3.33
2023-02-05T07:14:58.527Z,-3.25
2023-02-05T07:16:05.359Z,-3.43
2023-02-05T07:17:08.307Z,-3.38
2023-02-05T07:18:10.314Z,-3.23
2023-02-05T07:19:12.873Z,-3.18
2023-02-05T07:20:17.155Z,-3.09
2023-02-05T07:21:19.693Z,-3.12
2023-02-05T07:22:22.474Z,-3.05
2023-02-05T07:23:24.910Z,-3.01
2023-02-05T07:24:27.614Z,-3.01
2023-02-05T07:25:31.948Z,-2.93
2023-02-05T07:26:35.714Z,-3.13
2023-02-05T07:27:38.388Z,-3.23
2023-02-05T07:28:42.993Z,-3.26
2023-02-05T07:29:45.239Z,-3.19
2023-02-05T07:30:49.153Z,-3.10
2023-02-05T07:31:52.343Z,-3.02
2023-02-05T07:32:54.581Z,-2.97
2023-02-05T07:33:58.377Z,-3.01
2023-02-05T07:35:00.754Z,-2.95
2023-02-05T07:36:08.567Z,-2.98
2023-02-05T07:37:12.634Z,-3.02
2023-02-05T07:38:15.635Z,-2.95
2023-02-05T07:39:18.928Z,-3.14
2023-02-05T07:40:21.744Z,-3.29
2023-02-05T07:41:26.702Z,-3.27
2023-02-05T07:42:31.608Z,-3.19
2023-02-05T07:43:37.393Z,-3.09
2023-02-05T07:44:39.757Z,-3.10
2023-02-05T07:45:41.858Z,-3.05
2023-02-05T07:46:44.119Z,-3.01
2023-02-05T07:47:48.982Z,-2.90
2023-02-05T07:48:51.199Z,-2.97
2023-02-05T07:49:53.280Z,-3.13
2023-02-05T07:50:57.010Z,-3.05
2023-02-05T07:51:59.153Z,-3.08
2023-02-05T07:53:02.249Z,-2.95
2023-02-05T07:54:10.336Z,-2.95
2023-02-05T07:55:12.351Z,-2.87
2023-02-05T07:56:15.155Z,-2.91
2023-02-05T07:57:17.167Z,-2.96
2023-02-05T07:58:25.288Z,-3.19
2023-02-05T07:59:27.719Z,-3.01
2023-02-05T08:00:30.655Z,-2.98
2023-02-05T08:01:34.536Z,-2.95
2023-02-05T08:02:37.911Z,-2.88
2023-02-05T08:03:40.377Z,-2.81
2023-02-05T08:04:43.482Z,-2.83
2023-02-05T08:05:46.566Z,-2.83
2023-02-05T08:06:48.871Z,-2.81
2023-02-05T08:07:51.236Z,-2.78
2023-02-05T08:08:54.673Z,-2.71
2023-02-05T08:09:58.033Z,-2.71
2023-02-05T08:11:06.438Z,-2.74
2023-02-05T08:12:09.360Z,-2.70
2023-02-05T08:13:12.251Z,-2.75
2023-02-05T08:14:14.854Z,-2.65
2023-02-05T08:15:17.639Z,-2.89
2023-02-05T08:16:21.269Z,-3.03
2023-02-05T08:17:23.621Z,-2.90
2023-02-05T08:18:25.809Z,-2.90
2023-02-05T08:19:27.920Z,-2.78
2023-02-05T08:20:30.259Z,-2.81
2023-02-05T08:21:33.548Z,-2.67
2023-02-05T08:22:38.127Z,-2.69
2023-02-05T08:23:40.587Z,-2.62
2023-02-05T08:24:42.877Z,-2.54
2023-02-05T08:25:45.037Z,-2.50
2023-02-05T08:26:47.452Z,-2.54
2023-02-05T08:27:49.617Z,-2.45
2023-02-05T08:28:51.705Z,-2.42
2023-02-05T08:29:53.954Z,-2.43
2023-02-05T08:30:57.050Z,-2.61
2023-02-05T08:31:59.692Z,-2.59
2023-02-05T08:33:02.294Z,-2.68
2023-02-05T08:34:05.374Z,-2.55
2023-02-05T08:35:07.962Z,-2.62
2023-02-05T08:36:11.487Z,-2.56
2023-02-05T08:37:13.629Z,-2.53
2023-02-05T08:38:17.087Z,-2.41
2023-02-05T08:39:20.443Z,-2.30
2023-02-05T08:40:23.020Z,-2.30
2023-02-05T08:41:25.239Z,-2.26
2023-02-05T08:42:28.001Z,-2.23
2023-02-05T08:43:30.353Z,-2.17
2023-02-05T08:44:33.213Z,-2.21
2023-02-05T08:45:36.972Z,-2.18
2023-02-05T08:46:49.299Z,-2.16
2023-02-05T08:47:45.023Z,-2.14
2023-02-05T08:48:48.261Z,-2.01
2023-02-05T08:49:50.972Z,-2.14
2023-02-05T08:50:54.192Z,-2.44
2023-02-05T08:51:57.674Z,-2.34
2023-02-05T08:53:00.969Z,-2.33
2023-02-05T08:54:05.277Z,-2.23
2023-02-05T08:55:08.723Z,-2.31
2023-02-05T08:56:13.899Z,-2.22
2023-02-05T08:57:16.529Z,-2.24
2023-02-05T08:58:18.655Z,-2.13
2023-02-05T08:59:21.508Z,-2.13
2023-02-05T09:00:24.846Z,-2.09
2023-02-05T09:01:27.620Z,-2.07
2023-02-05T09:02:32.138Z,-2.00
2023-02-05T09:03:34.520Z,-2.01
2023-02-05T09:04:38.497Z,-1.99
2023-02-05T09:05:40.963Z,-2.00
2023-02-05T09:06:44.345Z,-1.91
2023-02-05T09:07:47.546Z,-1.95
2023-02-05T09:08:49.949Z,-1.98
2023-02-05T09:09:51.958Z,-1.96
2023-02-05T09:10:54.379Z,-1.90
2023-02-05T09:11:58.103Z,-1.95
2023-02-05T09:13:00.884Z,-1.88
2023-02-05T09:14:04.053Z,-1.98
2023-02-05T09:15:08.164Z,-1.97
2023-02-05T09:16:13.281Z,-1.83
2023-02-05T09:17:16.772Z,-1.67
2023-02-05T09:18:19.416Z,-1.69
2023-02-05T09:19:21.542Z,-1.66
2023-02-05T09:20:23.667Z,-1.66
2023-02-05T09:21:27.123Z,-1.70
2023-02-05T09:22:29.488Z,-1.70
2023-02-05T09:23:32.506Z,-1.56
2023-02-05T09:24:37.015Z,-1.59
2023-02-05T09:25:41.214Z,-1.78
2023-02-05T09:26:43.851Z,-1.83
2023-02-05T09:27:46.238Z,-1.87
2023-02-05T09:28:49.550Z,-1.80
2023-02-05T09:29:51.750Z,-1.74
2023-02-05T09:30:55.166Z,-1.70
2023-02-05T09:32:00.351Z,-1.68
2023-02-05T09:33:02.892Z,-1.65
2023-02-05T09:34:05.874Z,-1.73
2023-02-05T09:35:08.453Z,-1.91
2023-02-05T09:36:20.494Z,-1.85
2023-02-05T09:37:23.798Z,-1.74
2023-02-05T09:38:26.040Z,-1.83
2023-02-05T09:40:17.348Z,-1.75
2023-02-05T09:40:44.496Z,-1.58
2023-02-05T09:41:53.950Z,-1.61
2023-02-05T09:43:31.518Z,-1.53
2023-02-05T09:44:40.764Z,-1.52
2023-02-05T09:45:59.318Z,-1.49
2023-02-05T09:47:08.986Z,-1.59
2023-02-05T09:48:38.488Z,-1.63
2023-02-05T09:50:06.868Z,-1.60
2023-02-05T09:51:12.301Z,-1.38
2023-02-05T09:52:21.229Z,-1.13
2023-02-05T09:53:25.913Z,-0.82
2023-02-05T09:54:31.724Z,-1.06
2023-02-05T09:55:38.177Z,-0.98
2023-02-05T09:56:43.320Z,-0.91
2023-02-05T09:57:46.253Z,-0.91
2023-02-05T09:58:51.345Z,-0.88
2023-02-05T09:59:53.815Z,-0.75
2023-02-05T10:01:02.864Z,-0.55
2023-02-05T10:03:33.433Z,-0.60
2023-02-05T10:04:36.313Z,-0.62
2023-02-05T10:05:48.644Z,-0.62
2023-02-05T10:07:09.298Z,-0.61
2023-02-05T10:08:21.340Z,-0.46
2023-02-05T10:09:48.960Z,-0.32
2023-02-05T10:10:54.200Z,-0.29
2023-02-05T10:12:12.350Z,-0.36
2023-02-05T10:13:27.357Z,-0.29
2023-02-05T10:14:49.880Z,-0.34
2023-02-05T10:16:04.982Z,-0.18
2023-02-05T10:17:29.902Z,-0.21
2023-02-05T10:18:51.032Z,-0.24
2023-02-05T10:22:01.054Z,-0.09
2023-02-05T10:23:13.099Z,-0.10
2023-02-05T10:24:39.606Z,-0.06
2023-02-05T10:25:53.344Z,-0.37
2023-02-05T10:27:00.635Z,-0.43
2023-02-05T10:28:13.218Z,-0.42
2023-02-05T10:29:25.246Z,-0.58
2023-02-05T10:30:34.535Z,-0.79
2023-02-05T10:31:43.305Z,-0.90
2023-02-05T10:33:01.798Z,-0.63
2023-02-05T10:34:16.653Z,-0.41
2023-02-05T10:35:26.234Z,-0.32
2023-02-05T10:36:29.746Z,-0.34
2023-02-05T10:37:44.438Z,-0.31
2023-02-05T10:38:47.592Z,-0.25
2023-02-05T10:39:50.052Z,-0.19
2023-02-05T10:41:00.448Z,-0.18
2023-02-05T10:42:06.731Z,-0.02
2023-02-05T10:43:25.947Z,0.01
2023-02-05T10:44:47.944Z,-0.09
2023-02-05T10:45:52.588Z,-0.26
2023-02-05T10:46:59.301Z,-0.65
2023-02-05T10:48:21.523Z,-0.59
2023-02-05T10:49:30.419Z,-0.60
2023-02-05T10:50:55.003Z,-0.56
2023-02-05T10:51:58.027Z,-0.39
2023-02-05T10:53:00.242Z,-0.44
2023-02-05T10:54:02.806Z,-0.38
2023-02-05T10:55:08.763Z,-0.36
2023-02-05T10:56:14.961Z,-0.31
2023-02-05T10:57:20.307Z,-0.30
2023-02-05T10:58:45.755Z,-0.39
2023-02-05T10:59:56.050Z,-0.40
2023-02-05T11:01:00.858Z,-0.56
2023-02-05T11:02:06.693Z,-0.70
2023-02-05T11:03:12.745Z,-0.77
2023-02-05T11:04:18.182Z,-0.72
2023-02-05T11:05:40.088Z,-0.71
2023-02-05T11:06:48.734Z,-0.67
2023-02-05T11:07:54.203Z,-0.85
2023-02-05T11:08:58.020Z,-0.85
2023-02-05T11:10:25.557Z,-0.79
2023-02-05T11:11:31.312Z,-0.81
2023-02-05T11:12:33.558Z,-0.74
2023-02-05T11:13:40.318Z,-0.70
2023-02-05T11:14:48.890Z,-0.77
2023-02-05T11:16:09.162Z,-0.79
2023-02-05T11:17:21.402Z,-0.78
2023-02-05T11:18:36.360Z,-0.74
2023-02-05T11:19:39.529Z,-0.82
2023-02-05T11:20:47.399Z,-0.81
2023-02-05T11:21:56.021Z,-0.79
2023-02-05T11:23:11.194Z,-0.93
2023-02-05T11:24:25.501Z,-0.90
2023-02-05T11:25:30.458Z,-0.88
2023-02-05T11:26:33.407Z,-0.91
2023-02-05T11:27:36.246Z,-0.93
2023-02-05T11:28:40.691Z,-0.91
2023-02-05T11:29:43.827Z,-0.87
2023-02-05T11:30:53.693Z,-0.82
2023-02-05T11:31:51.868Z,-0.79
2023-02-05T11:32:54.440Z,-0.81
2023-02-05T11:34:11.627Z,-0.82
2023-02-05T11:35:31.845Z,-0.73
2023-02-05T11:36:36.830Z,-0.71
2023-02-05T11:37:41.204Z,-0.72
2023-02-05T11:38:58.610Z,-0.82
2023-02-05T11:40:01.962Z,-0.78
2023-02-05T11:41:07.941Z,-0.64
2023-02-05T11:42:23.392Z,-0.64
2023-02-05T11:44:51.664Z,-0.56
2023-02-05T11:45:57.785Z,-0.77
2023-02-05T11:47:04.104Z,-0.71
2023-02-05T11:48:13.403Z,-0.78
2023-02-05T11:50:29.270Z,-0.65
2023-02-05T11:51:38.238Z,-0.77
2023-02-05T11:52:40.511Z,-0.60
2023-02-05T11:53:46.714Z,-0.62
2023-02-05T11:54:50.630Z,-0.55
2023-02-05T11:56:02.913Z,-0.53
2023-02-05T11:57:21.813Z,-0.54
2023-02-05T11:58:37.281Z,-0.56
2023-02-05T11:59:40.001Z,-0.50
2023-02-05T12:00:52.965Z,-0.46
2023-02-05T12:01:57.113Z,-0.44
2023-02-05T12:03:06.689Z,-0.35
2023-02-05T12:04:12.514Z,-0.49
2023-02-05T12:05:21.019Z,-0.54
2023-02-05T12:06:29.401Z,-0.70
2023-02-05T12:07:36.636Z,-0.58
2023-02-05T12:08:48.796Z,-0.77
2023-02-05T12:09:54.348Z,-0.89
2023-02-05T12:11:24.565Z,-0.95
2023-02-05T12:12:36.519Z,-1.06
2023-02-05T12:14:07.018Z,-1.05
2023-02-05T12:15:23.211Z,-1.08
2023-02-05T12:16:33.376Z,-0.95
2023-02-05T12:17:42.934Z,-0.87
2023-02-05T12:18:57.423Z,-0.82
2023-02-05T12:20:24.896Z,-0.77
2023-02-05T12:21:46.604Z,-0.75
2023-02-05T12:23:04.798Z,-0.64
2023-02-05T12:24:18.174Z,-0.66
2023-02-05T12:25:28.072Z,-0.65
2023-02-05T12:26:38.305Z,-0.74
2023-02-05T12:27:47.244Z,-0.73
2023-02-05T12:29:00.309Z,-0.80
2023-02-05T12:30:31.955Z,-0.85
2023-02-05T12:31:47.748Z,-0.82
2023-02-05T12:33:10.696Z,-0.71
2023-02-05T12:34:16.625Z,-0.73
2023-02-05T12:35:32.884Z,-0.78
2023-02-05T12:37:11.333Z,-0.63
2023-02-05T12:38:32.409Z,-0.53
2023-02-05T12:39:41.301Z,-0.45
2023-02-05T12:41:05.762Z,-0.53
2023-02-05T12:42:17.341Z,-0.65
2023-02-05T12:43:34.592Z,-0.67
2023-02-05T12:44:40.877Z,-0.65
2023-02-05T12:46:05.387Z,-0.71
2023-02-05T12:47:30.761Z,-0.78
2023-02-05T12:48:58.813Z,-0.69
2023-02-05T12:50:16.943Z,-0.77
2023-02-05T12:51:29.333Z,-0.77
2023-02-05T12:52:40.214Z,-1.02
2023-02-05T12:53:49.041Z,-0.92
2023-02-05T12:54:56.350Z,-0.81
2023-02-05T12:56:15.465Z,-0.87
2023-02-05T12:57:24.323Z,-0.99
2023-02-05T12:58:30.213Z,-0.89
2023-02-05T12:59:49.011Z,-0.91
2023-02-05T13:00:57.959Z,-0.85
2023-02-05T13:02:16.183Z,-0.85
2023-02-05T13:03:25.146Z,-0.83
2023-02-05T13:04:34.399Z,-0.85
2023-02-05T13:05:40.155Z,-1.01
2023-02-05T13:06:47.303Z,-1.00
2023-02-05T13:07:54.092Z,-1.04
2023-02-05T13:09:02.588Z,-1.02
2023-02-05T13:10:27.781Z,-1.02
2023-02-05T13:11:34.649Z,-1.04
2023-02-05T13:12:40.448Z,-1.03
2023-02-05T13:13:48.909Z,-1.05
2023-02-05T13:15:06.940Z,-1.03
2023-02-05T13:16:13.683Z,-0.94
2023-02-05T13:17:20.019Z,-0.94
2023-02-05T13:18:25.923Z,-0.91
2023-02-05T13:19:36.823Z,-0.88
2023-02-05T13:21:02.934Z,-0.96
2023-02-05T13:22:31.144Z,-1.04
2023-02-05T13:23:53.979Z,-0.92
2023-02-05T13:25:21.079Z,-1.11
2023-02-05T13:26:49.112Z,-1.04
2023-02-05T13:28:14.404Z,-1.08
2023-02-05T13:29:20.482Z,-1.18
2023-02-05T13:30:26.603Z,-1.18
2023-02-05T13:31:39.167Z,-1.17
2023-02-05T13:32:45.327Z,-1.09
2023-02-05T13:33:48.966Z,-1.10
2023-02-05T13:34:53.631Z,-1.06
2023-02-05T13:36:11.992Z,-1.04
2023-02-05T13:37:27.196Z,-1.15
2023-02-05T13:39:00.982Z,-1.13
2023-02-05T13:40:24.134Z,-1.14
2023-02-05T13:41:50.401Z,-1.18
2023-02-05T13:43:15.228Z,-1.10
2023-02-05T13:44:48.919Z,-1.05
2023-02-05T13:46:01.198Z,-1.07
2023-02-05T13:47:10.464Z,-0.93
2023-02-05T13:48:38.879Z,-0.98
2023-02-05T13:50:08.133Z,-1.02
2023-02-05T13:51:23.356Z,-1.15
2023-02-05T13:53:05.675Z,-1.06
2023-02-05T13:54:33.132Z,-1.04
2023-02-05T13:56:04.954Z,-1.14
2023-02-05T13:57:36.650Z,-1.17
2023-02-05T13:58:59.018Z,-1.21
2023-02-05T14:00:04.771Z,-1.29
2023-02-05T14:01:25.825Z,-1.19
2023-02-05T14:02:51.546Z,-1.23
2023-02-05T14:03:59.033Z,-1.22
2023-02-05T14:05:04.757Z,-1.39
2023-02-05T14:06:21.421Z,-1.38
2023-02-05T14:07:31.781Z,-1.31
2023-02-05T14:08:37.819Z,-1.22
2023-02-05T14:09:48.642Z,-1.23
2023-02-05T14:11:01.100Z,-1.20
2023-02-05T14:12:12.772Z,-1.33
2023-02-05T14:13:22.335Z,-1.30
2023-02-05T14:14:32.605Z,-1.31
2023-02-05T14:15:38.093Z,-1.29
2023-02-05T14:16:42.789Z,-1.25
2023-02-05T14:17:48.841Z,-1.23
2023-02-05T14:19:03.878Z,-1.24
2023-02-05T14:20:32.578Z,-1.29
2023-02-05T14:21:48.537Z,-1.27
2023-02-05T14:22:53.721Z,-1.22
2023-02-05T14:24:01.206Z,-1.18
2023-02-05T14:25:08.969Z,-1.19
2023-02-05T14:26:12.146Z,-1.17
2023-02-05T14:27:40.178Z,-1.23
2023-02-05T14:28:47.894Z,-1.25
2023-02-05T14:29:51.773Z,-1.24
2023-02-05T14:30:59.006Z,-1.31
2023-02-05T14:32:01.832Z,-1.30
2023-02-05T14:33:07.599Z,-1.28
2023-02-05T14:35:40.327Z,-1.19
2023-02-05T14:36:44.879Z,-1.30